GLT1 KSAN-KLEX
Flight info
| Callsign | GLT1 |
|---|---|
| Flight time | 3h 8m |
| Altitude | 41000 |
| Route | ZZOOO4 GBN J18 PXR TCC PER SGF TERGE IIU |
| Aircraft | C750/M-VGDW/C |
Departure
| Time | 2026-04-12 05:46 |
|---|---|
| Airport | San Diego International Airport (KSAN) |
Arrival
| Time | 2026-04-12 08:55 |
|---|---|
| Airport | Blue Grass Airport (KLEX) |
| Time | Latitude | Longitude | Altitude | Speed | Heading |
|---|---|---|---|---|---|
| 2026-04-12 05:38 | 32.73354 | -117.17871 | 19 ft | 0 kts | 94° |
| 2026-04-12 05:43 | 32.73365 | -117.17856 | 20 ft | 6 kts | 6° |
| 2026-04-12 05:43 | 32.73376 | -117.17873 | 19 ft | 0 kts | 281° |
| 2026-04-12 05:43 | 32.73373 | -117.17900 | 20 ft | 7 kts | 253° |
| 2026-04-12 05:44 | 32.73332 | -117.17959 | 19 ft | 9 kts | 205° |
| 2026-04-12 05:44 | 32.73273 | -117.17980 | 19 ft | 8 kts | 196° |
| 2026-04-12 05:44 | 32.73224 | -117.17949 | 18 ft | 12 kts | 108° |
| 2026-04-12 05:44 | 32.73199 | -117.17846 | 21 ft | 13 kts | 106° |
| 2026-04-12 05:45 | 32.73172 | -117.17733 | 20 ft | 15 kts | 106° |
| 2026-04-12 05:45 | 32.73145 | -117.17617 | 21 ft | 12 kts | 105° |
| 2026-04-12 05:45 | 32.73090 | -117.17548 | 20 ft | 12 kts | 147° |
| 2026-04-12 05:45 | 32.73043 | -117.17525 | 21 ft | 10 kts | 185° |
| 2026-04-12 05:46 | 32.73063 | -117.17755 | 21 ft | 59 kts | 285° |
| 2026-04-12 05:46 | 32.73269 | -117.18608 | 24 ft | 143 kts | 286° |
| 2026-04-12 05:46 | 32.73558 | -117.19782 | 532 ft | 150 kts | 287° |
| 2026-04-12 05:46 | 32.73761 | -117.20582 | 945 ft | 149 kts | 287° |
| 2026-04-12 05:47 | 32.74060 | -117.21862 | 1296 ft | 178 kts | 285° |
| 2026-04-12 05:47 | 32.74440 | -117.23408 | 1695 ft | 212 kts | 286° |
| 2026-04-12 05:47 | 32.74878 | -117.25163 | 2271 ft | 230 kts | 285° |
| 2026-04-12 05:47 | 32.75303 | -117.26989 | 3286 ft | 229 kts | 284° |
| 2026-04-12 05:48 | 32.75740 | -117.28839 | 4203 ft | 235 kts | 284° |
| 2026-04-12 05:48 | 32.76195 | -117.30716 | 5113 ft | 238 kts | 284° |
| 2026-04-12 05:48 | 32.76534 | -117.32651 | 5893 ft | 243 kts | 269° |
| 2026-04-12 05:48 | 32.76105 | -117.34572 | 6774 ft | 242 kts | 243° |
| 2026-04-12 05:49 | 32.74993 | -117.36066 | 7686 ft | 246 kts | 216° |
| 2026-04-12 05:49 | 32.73390 | -117.36788 | 8635 ft | 252 kts | 189° |
| 2026-04-12 05:49 | 32.71656 | -117.36519 | 9470 ft | 263 kts | 162° |
| 2026-04-12 05:49 | 32.70169 | -117.35199 | 10299 ft | 272 kts | 136° |
| 2026-04-12 05:50 | 32.68974 | -117.33431 | 11102 ft | 277 kts | 132° |
| 2026-04-12 05:50 | 32.67800 | -117.31592 | 11858 ft | 281 kts | 132° |
| 2026-04-12 05:50 | 32.66585 | -117.29747 | 12606 ft | 285 kts | 134° |
| 2026-04-12 05:50 | 32.65343 | -117.27897 | 13340 ft | 289 kts | 134° |
| 2026-04-12 05:51 | 32.64093 | -117.26016 | 14061 ft | 293 kts | 133° |
| 2026-04-12 05:51 | 32.63072 | -117.23830 | 14293 ft | 323 kts | 111° |
| 2026-04-12 05:51 | 32.62722 | -117.21082 | 14361 ft | 347 kts | 97° |
| 2026-04-12 05:51 | 32.62572 | -117.18164 | 14688 ft | 361 kts | 96° |
| 2026-04-12 05:52 | 32.62340 | -117.15132 | 15005 ft | 375 kts | 99° |
| 2026-04-12 05:52 | 32.62039 | -117.12002 | 15280 ft | 389 kts | 96° |
| 2026-04-12 05:52 | 32.62284 | -117.08738 | 15450 ft | 403 kts | 82° |
| 2026-04-12 05:52 | 32.62779 | -117.05456 | 16103 ft | 404 kts | 80° |
| 2026-04-12 05:53 | 32.63380 | -117.02182 | 16717 ft | 409 kts | 78° |
| 2026-04-12 05:53 | 32.64028 | -116.98884 | 17327 ft | 413 kts | 78° |
| 2026-04-12 05:53 | 32.64624 | -116.95560 | 17962 ft | 415 kts | 79° |
| 2026-04-12 05:53 | 32.65200 | -116.92170 | 18593 ft | 419 kts | 79° |
| 2026-04-12 05:54 | 32.65804 | -116.88764 | 19222 ft | 424 kts | 79° |
| 2026-04-12 05:54 | 32.66421 | -116.85397 | 19826 ft | 428 kts | 78° |
| 2026-04-12 05:54 | 32.67049 | -116.81911 | 20463 ft | 431 kts | 79° |
| 2026-04-12 05:54 | 32.67664 | -116.78414 | 21081 ft | 435 kts | 79° |
| 2026-04-12 05:55 | 32.68286 | -116.74882 | 21699 ft | 439 kts | 79° |
| 2026-04-12 05:55 | 32.68919 | -116.71326 | 22305 ft | 443 kts | 79° |
| 2026-04-12 05:55 | 32.69559 | -116.67724 | 22879 ft | 446 kts | 79° |
| 2026-04-12 05:55 | 32.70201 | -116.64095 | 23448 ft | 450 kts | 79° |
| 2026-04-12 05:56 | 32.70845 | -116.60435 | 24004 ft | 454 kts | 79° |
| 2026-04-12 05:56 | 32.71494 | -116.56755 | 24535 ft | 458 kts | 79° |
| 2026-04-12 05:56 | 32.72147 | -116.53037 | 25003 ft | 462 kts | 79° |
| 2026-04-12 05:56 | 32.72806 | -116.49274 | 25486 ft | 466 kts | 78° |
| 2026-04-12 05:57 | 32.73461 | -116.45532 | 25974 ft | 470 kts | 78° |
| 2026-04-12 05:57 | 32.74129 | -116.41715 | 26457 ft | 474 kts | 78° |
| 2026-04-12 05:57 | 32.74801 | -116.37867 | 26941 ft | 477 kts | 78° |
| 2026-04-12 05:57 | 32.75479 | -116.33983 | 27367 ft | 482 kts | 78° |
| 2026-04-12 05:58 | 32.76156 | -116.30074 | 27836 ft | 485 kts | 78° |
| 2026-04-12 05:58 | 32.76839 | -116.26129 | 28260 ft | 489 kts | 78° |
| 2026-04-12 05:58 | 32.77527 | -116.22149 | 28668 ft | 492 kts | 78° |
| 2026-04-12 05:58 | 32.78219 | -116.18149 | 29083 ft | 496 kts | 77° |
| 2026-04-12 05:59 | 32.78918 | -116.14110 | 29512 ft | 500 kts | 77° |
| 2026-04-12 05:59 | 32.79611 | -116.10076 | 29909 ft | 503 kts | 77° |
| 2026-04-12 05:59 | 32.80312 | -116.05986 | 30330 ft | 506 kts | 77° |
| 2026-04-12 05:59 | 32.81008 | -116.01929 | 30744 ft | 509 kts | 77° |
| 2026-04-12 06:00 | 32.81715 | -115.97796 | 31244 ft | 509 kts | 77° |
| 2026-04-12 06:00 | 32.82412 | -115.93701 | 31986 ft | 503 kts | 77° |
| 2026-04-12 06:00 | 32.83107 | -115.89623 | 32602 ft | 501 kts | 77° |
| 2026-04-12 06:00 | 32.83797 | -115.85568 | 33133 ft | 500 kts | 77° |
| 2026-04-12 06:01 | 32.84484 | -115.81510 | 33666 ft | 499 kts | 77° |
| 2026-04-12 06:01 | 32.85165 | -115.77481 | 34174 ft | 498 kts | 77° |
| 2026-04-12 06:01 | 32.85851 | -115.73428 | 34635 ft | 498 kts | 77° |
| 2026-04-12 06:01 | 32.86532 | -115.69395 | 35166 ft | 497 kts | 77° |
| 2026-04-12 06:02 | 32.87199 | -115.65420 | 35698 ft | 495 kts | 77° |
| 2026-04-12 06:02 | 32.87882 | -115.61347 | 36212 ft | 495 kts | 77° |
| 2026-04-12 06:02 | 32.88548 | -115.57376 | 36685 ft | 495 kts | 77° |
| 2026-04-12 06:02 | 32.89219 | -115.53362 | 37156 ft | 494 kts | 77° |
| 2026-04-12 06:03 | 32.89883 | -115.49368 | 37780 ft | 488 kts | 77° |
| 2026-04-12 06:03 | 32.90539 | -115.45426 | 38330 ft | 485 kts | 77° |
| 2026-04-12 06:03 | 32.91198 | -115.41485 | 38705 ft | 485 kts | 77° |
| 2026-04-12 06:03 | 32.91851 | -115.37550 | 39068 ft | 485 kts | 77° |
| 2026-04-12 06:04 | 32.92502 | -115.33607 | 39419 ft | 486 kts | 78° |
| 2026-04-12 06:04 | 32.93156 | -115.29643 | 39765 ft | 487 kts | 78° |
| 2026-04-12 06:04 | 32.93800 | -115.25738 | 40109 ft | 488 kts | 78° |
| 2026-04-12 06:04 | 32.94452 | -115.21773 | 40470 ft | 488 kts | 78° |
| 2026-04-12 06:05 | 32.95104 | -115.17799 | 40794 ft | 489 kts | 78° |
| 2026-04-12 06:05 | 32.95757 | -115.13812 | 40926 ft | 495 kts | 78° |
| 2026-04-12 06:05 | 32.97096 | -115.05610 | 40932 ft | 513 kts | 78° |
| 2026-04-12 06:06 | 32.98475 | -114.97127 | 40937 ft | 529 kts | 79° |
| 2026-04-12 06:06 | 32.99884 | -114.88417 | 40939 ft | 540 kts | 79° |
| 2026-04-12 06:07 | 33.01311 | -114.79555 | 40939 ft | 548 kts | 79° |
| 2026-04-12 06:07 | 33.02746 | -114.70606 | 40924 ft | 550 kts | 79° |
| 2026-04-12 06:08 | 33.04165 | -114.61709 | 40926 ft | 550 kts | 78° |
| 2026-04-12 06:08 | 33.05599 | -114.52668 | 40907 ft | 559 kts | 79° |
| 2026-04-12 06:09 | 33.07043 | -114.43536 | 40916 ft | 562 kts | 79° |
| 2026-04-12 06:09 | 33.08486 | -114.34352 | 40918 ft | 561 kts | 79° |
| 2026-04-12 06:10 | 33.09915 | -114.25221 | 40918 ft | 560 kts | 79° |
| 2026-04-12 06:10 | 33.11335 | -114.16095 | 40919 ft | 559 kts | 79° |
| 2026-04-12 06:11 | 33.12739 | -114.07027 | 40916 ft | 558 kts | 79° |
| 2026-04-12 06:11 | 33.14143 | -113.97912 | 40916 ft | 558 kts | 79° |
| 2026-04-12 06:12 | 33.15529 | -113.88875 | 40916 ft | 550 kts | 80° |
| 2026-04-12 06:12 | 33.16904 | -113.79860 | 40922 ft | 554 kts | 80° |
| 2026-04-12 06:13 | 33.18279 | -113.70806 | 40928 ft | 554 kts | 80° |
| 2026-04-12 06:13 | 33.19639 | -113.61801 | 40930 ft | 553 kts | 80° |
| 2026-04-12 06:14 | 33.20997 | -113.52765 | 40928 ft | 553 kts | 80° |
| 2026-04-12 06:14 | 33.22348 | -113.43715 | 40929 ft | 553 kts | 80° |
| 2026-04-12 06:15 | 33.23695 | -113.34658 | 40933 ft | 553 kts | 80° |
| 2026-04-12 06:15 | 33.25034 | -113.25599 | 40943 ft | 554 kts | 80° |
| 2026-04-12 06:16 | 33.26370 | -113.16530 | 40941 ft | 554 kts | 80° |
| 2026-04-12 06:16 | 33.27687 | -113.07526 | 40942 ft | 553 kts | 80° |
| 2026-04-12 06:17 | 33.29005 | -112.98475 | 40942 ft | 553 kts | 80° |
| 2026-04-12 06:17 | 33.30318 | -112.89415 | 40950 ft | 553 kts | 80° |
| 2026-04-12 06:18 | 33.31624 | -112.80347 | 40950 ft | 553 kts | 80° |
| 2026-04-12 06:18 | 33.32924 | -112.71274 | 40950 ft | 553 kts | 80° |
| 2026-04-12 06:19 | 33.34217 | -112.62210 | 40951 ft | 553 kts | 81° |
| 2026-04-12 06:19 | 33.35495 | -112.53191 | 40950 ft | 553 kts | 81° |
| 2026-04-12 06:20 | 33.36773 | -112.44126 | 40943 ft | 553 kts | 81° |
| 2026-04-12 06:20 | 33.38047 | -112.35048 | 40928 ft | 552 kts | 81° |
| 2026-04-12 06:21 | 33.39303 | -112.26036 | 40924 ft | 552 kts | 81° |
| 2026-04-12 06:21 | 33.40560 | -112.16976 | 40934 ft | 552 kts | 81° |
| 2026-04-12 06:22 | 33.41812 | -112.07894 | 40933 ft | 553 kts | 81° |
| 2026-04-12 06:22 | 33.43060 | -111.98812 | 40933 ft | 552 kts | 81° |
| 2026-04-12 06:23 | 33.44996 | -111.89983 | 40947 ft | 552 kts | 72° |
| 2026-04-12 06:23 | 33.47255 | -111.81190 | 40958 ft | 553 kts | 74° |
| 2026-04-12 06:24 | 33.49358 | -111.72328 | 40961 ft | 553 kts | 73° |
| 2026-04-12 06:24 | 33.51577 | -111.63511 | 40960 ft | 552 kts | 74° |
| 2026-04-12 06:25 | 33.53693 | -111.54667 | 40960 ft | 552 kts | 73° |
| 2026-04-12 06:25 | 33.55869 | -111.45845 | 40969 ft | 552 kts | 74° |
| 2026-04-12 06:26 | 33.57998 | -111.36985 | 40977 ft | 552 kts | 74° |
| 2026-04-12 06:26 | 33.60132 | -111.28204 | 40977 ft | 552 kts | 74° |
| 2026-04-12 06:27 | 33.62260 | -111.19340 | 41023 ft | 551 kts | 74° |
| 2026-04-12 06:27 | 33.64392 | -111.10470 | 41035 ft | 552 kts | 74° |
| 2026-04-12 06:28 | 33.66497 | -111.01665 | 41054 ft | 551 kts | 75° |
| 2026-04-12 06:28 | 33.68606 | -110.92814 | 41057 ft | 552 kts | 75° |
| 2026-04-12 06:29 | 33.70713 | -110.83947 | 41085 ft | 552 kts | 75° |
| 2026-04-12 06:29 | 33.72807 | -110.75094 | 41084 ft | 551 kts | 75° |
| 2026-04-12 06:30 | 33.74902 | -110.66216 | 41085 ft | 552 kts | 75° |
| 2026-04-12 06:30 | 33.76986 | -110.57342 | 41102 ft | 551 kts | 75° |
| 2026-04-12 06:31 | 33.79065 | -110.48468 | 41114 ft | 551 kts | 75° |
| 2026-04-12 06:31 | 33.81124 | -110.39647 | 41123 ft | 551 kts | 76° |
| 2026-04-12 06:32 | 33.83187 | -110.30771 | 41121 ft | 551 kts | 76° |
| 2026-04-12 06:32 | 33.85243 | -110.21901 | 41126 ft | 551 kts | 76° |
| 2026-04-12 06:33 | 33.87294 | -110.13014 | 41127 ft | 551 kts | 76° |
| 2026-04-12 06:33 | 33.89338 | -110.04130 | 41132 ft | 551 kts | 76° |
| 2026-04-12 06:34 | 33.91033 | -109.96740 | 41134 ft | 551 kts | 76° |
| 2026-04-12 06:34 | 33.93067 | -109.87834 | 41146 ft | 551 kts | 76° |
| 2026-04-12 06:35 | 33.96102 | -109.74496 | 41150 ft | 550 kts | 76° |
| 2026-04-12 06:36 | 33.98119 | -109.65589 | 41151 ft | 551 kts | 76° |
| 2026-04-12 06:36 | 34.00116 | -109.56735 | 41166 ft | 551 kts | 76° |
| 2026-04-12 06:37 | 34.02124 | -109.47806 | 41172 ft | 551 kts | 77° |
| 2026-04-12 06:37 | 34.04119 | -109.38899 | 41179 ft | 550 kts | 77° |
| 2026-04-12 06:38 | 34.06106 | -109.29993 | 41176 ft | 550 kts | 77° |
| 2026-04-12 06:38 | 34.08093 | -109.21058 | 41181 ft | 551 kts | 77° |
| 2026-04-12 06:39 | 34.10070 | -109.12132 | 41184 ft | 551 kts | 77° |
| 2026-04-12 06:39 | 34.12040 | -109.03203 | 41180 ft | 551 kts | 77° |
| 2026-04-12 06:40 | 34.14006 | -108.94264 | 41170 ft | 551 kts | 78° |
| 2026-04-12 06:40 | 34.15951 | -108.85379 | 41161 ft | 550 kts | 78° |
| 2026-04-12 06:41 | 34.17903 | -108.76438 | 41161 ft | 550 kts | 78° |
| 2026-04-12 06:41 | 34.19848 | -108.67492 | 41161 ft | 550 kts | 78° |
| 2026-04-12 06:42 | 34.21783 | -108.58550 | 41162 ft | 550 kts | 78° |
| 2026-04-12 06:42 | 34.23717 | -108.49590 | 41153 ft | 550 kts | 79° |
| 2026-04-12 06:43 | 34.25640 | -108.40637 | 41163 ft | 550 kts | 79° |
| 2026-04-12 06:43 | 34.27559 | -108.31676 | 41163 ft | 550 kts | 79° |
| 2026-04-12 06:44 | 34.29459 | -108.22762 | 41164 ft | 550 kts | 79° |
| 2026-04-12 06:44 | 34.31367 | -108.13788 | 41167 ft | 550 kts | 79° |
| 2026-04-12 06:45 | 34.33265 | -108.04810 | 41164 ft | 550 kts | 79° |
| 2026-04-12 06:45 | 34.35158 | -107.95830 | 41161 ft | 551 kts | 79° |
| 2026-04-12 06:46 | 34.37047 | -107.86837 | 41154 ft | 551 kts | 79° |
| 2026-04-12 06:46 | 34.38915 | -107.77902 | 41155 ft | 550 kts | 80° |
| 2026-04-12 06:47 | 34.40790 | -107.68905 | 41141 ft | 550 kts | 80° |
| 2026-04-12 06:47 | 34.42656 | -107.59902 | 41146 ft | 551 kts | 80° |
| 2026-04-12 06:48 | 34.44521 | -107.50885 | 41136 ft | 551 kts | 80° |
| 2026-04-12 06:48 | 34.46364 | -107.41928 | 41135 ft | 551 kts | 80° |
| 2026-04-12 06:49 | 34.48216 | -107.32894 | 41128 ft | 551 kts | 80° |
| 2026-04-12 06:49 | 34.50060 | -107.23862 | 41119 ft | 552 kts | 81° |
| 2026-04-12 06:50 | 34.51900 | -107.14816 | 41116 ft | 552 kts | 81° |
| 2026-04-12 06:50 | 34.53722 | -107.05817 | 41105 ft | 552 kts | 81° |
| 2026-04-12 06:51 | 34.55549 | -106.96760 | 41100 ft | 552 kts | 81° |
| 2026-04-12 06:51 | 34.57371 | -106.87690 | 41105 ft | 553 kts | 81° |
| 2026-04-12 06:52 | 34.59176 | -106.78669 | 41094 ft | 553 kts | 81° |
| 2026-04-12 06:52 | 34.60986 | -106.69582 | 41102 ft | 553 kts | 82° |
| 2026-04-12 06:53 | 34.62790 | -106.60493 | 41101 ft | 553 kts | 82° |
| 2026-04-12 06:53 | 34.64583 | -106.51414 | 41108 ft | 553 kts | 82° |
| 2026-04-12 06:54 | 34.66375 | -106.42309 | 41100 ft | 554 kts | 82° |
| 2026-04-12 06:54 | 34.68161 | -106.33191 | 41122 ft | 554 kts | 82° |
| 2026-04-12 06:55 | 34.69927 | -106.24138 | 41127 ft | 554 kts | 82° |
| 2026-04-12 06:55 | 34.71699 | -106.15019 | 41135 ft | 554 kts | 82° |
| 2026-04-12 06:56 | 34.73467 | -106.05875 | 41137 ft | 554 kts | 83° |
| 2026-04-12 06:56 | 34.75224 | -105.96754 | 41143 ft | 554 kts | 83° |
| 2026-04-12 06:57 | 34.76967 | -105.87653 | 41167 ft | 557 kts | 83° |
| 2026-04-12 06:57 | 34.78724 | -105.78476 | 41168 ft | 556 kts | 83° |
| 2026-04-12 06:58 | 34.80468 | -105.69292 | 41167 ft | 556 kts | 83° |
| 2026-04-12 06:58 | 34.82205 | -105.60114 | 41182 ft | 557 kts | 83° |
| 2026-04-12 06:59 | 34.83941 | -105.50905 | 41185 ft | 557 kts | 83° |
| 2026-04-12 06:59 | 34.85657 | -105.41765 | 41179 ft | 557 kts | 83° |
| 2026-04-12 07:00 | 34.88245 | -105.27882 | 41162 ft | 558 kts | 83° |
| 2026-04-12 07:00 | 34.89947 | -105.18723 | 41145 ft | 558 kts | 84° |
| 2026-04-12 07:01 | 34.91651 | -105.09487 | 41131 ft | 558 kts | 84° |
| 2026-04-12 07:01 | 34.93352 | -105.00249 | 41119 ft | 559 kts | 84° |
| 2026-04-12 07:02 | 34.95044 | -104.90994 | 41103 ft | 559 kts | 84° |
| 2026-04-12 07:02 | 34.96732 | -104.81743 | 41094 ft | 559 kts | 84° |
| 2026-04-12 07:03 | 34.98397 | -104.72541 | 41088 ft | 559 kts | 84° |
| 2026-04-12 07:03 | 35.00075 | -104.63272 | 41093 ft | 559 kts | 84° |
| 2026-04-12 07:04 | 35.01739 | -104.53993 | 41089 ft | 559 kts | 84° |
| 2026-04-12 07:04 | 35.03400 | -104.44718 | 41085 ft | 560 kts | 84° |
| 2026-04-12 07:05 | 35.05055 | -104.35417 | 41088 ft | 561 kts | 84° |
| 2026-04-12 07:05 | 35.06698 | -104.26160 | 41074 ft | 561 kts | 84° |
| 2026-04-12 07:06 | 35.08337 | -104.16856 | 41071 ft | 560 kts | 85° |
| 2026-04-12 07:06 | 35.09973 | -104.07538 | 41069 ft | 561 kts | 85° |
| 2026-04-12 07:07 | 35.11604 | -103.98213 | 41061 ft | 561 kts | 85° |
| 2026-04-12 07:07 | 35.13226 | -103.88852 | 41046 ft | 565 kts | 85° |
| 2026-04-12 07:08 | 35.14857 | -103.79463 | 41049 ft | 565 kts | 85° |
| 2026-04-12 07:08 | 35.16475 | -103.70046 | 41031 ft | 565 kts | 85° |
| 2026-04-12 07:09 | 35.18101 | -103.60658 | 41028 ft | 567 kts | 84° |
| 2026-04-12 07:09 | 35.20511 | -103.51450 | 41034 ft | 575 kts | 77° |
| 2026-04-12 07:10 | 35.23079 | -103.42196 | 41036 ft | 573 kts | 78° |
| 2026-04-12 07:10 | 35.25573 | -103.32907 | 41028 ft | 575 kts | 77° |
| 2026-04-12 07:11 | 35.28124 | -103.23645 | 41029 ft | 574 kts | 78° |
| 2026-04-12 07:11 | 35.30613 | -103.14338 | 41032 ft | 576 kts | 78° |
| 2026-04-12 07:12 | 35.33148 | -103.05031 | 41030 ft | 576 kts | 78° |
| 2026-04-12 07:12 | 35.35624 | -102.95754 | 41029 ft | 577 kts | 78° |
| 2026-04-12 07:13 | 35.38141 | -102.86408 | 41027 ft | 577 kts | 78° |
| 2026-04-12 07:13 | 35.40636 | -102.77023 | 41032 ft | 579 kts | 78° |
| 2026-04-12 07:14 | 35.43139 | -102.67644 | 41028 ft | 579 kts | 78° |
| 2026-04-12 07:14 | 35.45613 | -102.58292 | 41030 ft | 581 kts | 78° |
| 2026-04-12 07:15 | 35.48110 | -102.48851 | 41024 ft | 582 kts | 78° |
| 2026-04-12 07:15 | 35.50599 | -102.39388 | 41028 ft | 582 kts | 78° |
| 2026-04-12 07:16 | 35.53085 | -102.29913 | 41024 ft | 583 kts | 78° |
| 2026-04-12 07:16 | 35.55563 | -102.20395 | 41024 ft | 584 kts | 79° |
| 2026-04-12 07:17 | 35.58053 | -102.10882 | 41004 ft | 587 kts | 78° |
| 2026-04-12 07:17 | 35.60510 | -102.01355 | 41035 ft | 584 kts | 79° |
| 2026-04-12 07:18 | 35.63002 | -101.91811 | 41029 ft | 588 kts | 78° |
| 2026-04-12 07:18 | 35.65435 | -101.82297 | 41003 ft | 586 kts | 78° |
| 2026-04-12 07:19 | 35.67897 | -101.72736 | 41019 ft | 586 kts | 78° |
| 2026-04-12 07:19 | 35.70341 | -101.63142 | 41038 ft | 586 kts | 78° |
| 2026-04-12 07:20 | 35.72802 | -101.53525 | 40997 ft | 588 kts | 78° |
| 2026-04-12 07:20 | 35.75193 | -101.44011 | 40999 ft | 585 kts | 78° |
| 2026-04-12 07:21 | 35.77637 | -101.34440 | 41018 ft | 588 kts | 78° |
| 2026-04-12 07:21 | 35.80040 | -101.24805 | 40998 ft | 587 kts | 78° |
| 2026-04-12 07:22 | 35.82463 | -101.15231 | 41027 ft | 588 kts | 78° |
| 2026-04-12 07:22 | 35.84448 | -101.07224 | 40984 ft | 585 kts | 78° |
| 2026-04-12 07:23 | 35.86847 | -100.97628 | 40992 ft | 588 kts | 78° |
| 2026-04-12 07:23 | 35.89238 | -100.87998 | 40994 ft | 585 kts | 78° |
| 2026-04-12 07:24 | 35.91601 | -100.78417 | 41005 ft | 587 kts | 78° |
| 2026-04-12 07:24 | 35.93988 | -100.68759 | 40999 ft | 590 kts | 78° |
| 2026-04-12 07:25 | 35.96345 | -100.59137 | 41002 ft | 589 kts | 78° |
| 2026-04-12 07:25 | 35.98714 | -100.49449 | 41006 ft | 590 kts | 77° |
| 2026-04-12 07:26 | 36.01075 | -100.39757 | 41009 ft | 590 kts | 77° |
| 2026-04-12 07:26 | 36.03432 | -100.30027 | 41010 ft | 591 kts | 77° |
| 2026-04-12 07:27 | 36.05778 | -100.20330 | 41004 ft | 590 kts | 77° |
| 2026-04-12 07:27 | 36.08127 | -100.10599 | 41010 ft | 588 kts | 77° |
| 2026-04-12 07:28 | 36.10443 | -100.00867 | 40974 ft | 590 kts | 78° |
| 2026-04-12 07:28 | 36.12780 | -99.91124 | 40967 ft | 592 kts | 77° |
| 2026-04-12 07:29 | 36.15095 | -99.81353 | 40986 ft | 588 kts | 78° |
| 2026-04-12 07:29 | 36.17413 | -99.71612 | 40991 ft | 590 kts | 77° |
| 2026-04-12 07:30 | 36.19689 | -99.61914 | 41006 ft | 590 kts | 78° |
| 2026-04-12 07:30 | 36.21988 | -99.52155 | 41007 ft | 590 kts | 77° |
| 2026-04-12 07:31 | 36.24273 | -99.42375 | 41009 ft | 590 kts | 78° |
| 2026-04-12 07:31 | 36.26553 | -99.32598 | 41028 ft | 590 kts | 77° |
| 2026-04-12 07:32 | 36.28822 | -99.22820 | 41032 ft | 590 kts | 77° |
| 2026-04-12 07:32 | 36.31068 | -99.13101 | 41031 ft | 590 kts | 77° |
| 2026-04-12 07:33 | 36.33324 | -99.03305 | 41022 ft | 589 kts | 77° |
| 2026-04-12 07:33 | 36.35564 | -98.93527 | 41022 ft | 589 kts | 77° |
| 2026-04-12 07:34 | 36.37798 | -98.83745 | 41013 ft | 588 kts | 77° |
| 2026-04-12 07:34 | 36.40019 | -98.73969 | 41017 ft | 588 kts | 77° |
| 2026-04-12 07:35 | 36.42221 | -98.64246 | 41018 ft | 588 kts | 77° |
| 2026-04-12 07:35 | 36.44423 | -98.54480 | 41018 ft | 587 kts | 77° |
| 2026-04-12 07:36 | 36.46617 | -98.44708 | 41003 ft | 587 kts | 77° |
| 2026-04-12 07:36 | 36.48802 | -98.34936 | 40994 ft | 586 kts | 77° |
| 2026-04-12 07:37 | 36.50965 | -98.25216 | 40993 ft | 586 kts | 77° |
| 2026-04-12 07:37 | 36.53131 | -98.15449 | 40995 ft | 585 kts | 77° |
| 2026-04-12 07:38 | 36.55290 | -98.05667 | 40995 ft | 585 kts | 77° |
| 2026-04-12 07:38 | 36.57436 | -97.95904 | 40996 ft | 585 kts | 77° |
| 2026-04-12 07:39 | 36.59578 | -97.86121 | 40997 ft | 585 kts | 77° |
| 2026-04-12 07:39 | 36.61698 | -97.76392 | 40997 ft | 585 kts | 77° |
| 2026-04-12 07:40 | 36.63824 | -97.66596 | 41006 ft | 585 kts | 77° |
| 2026-04-12 07:40 | 36.65940 | -97.56801 | 41013 ft | 586 kts | 77° |
| 2026-04-12 07:41 | 36.68050 | -97.46997 | 41019 ft | 586 kts | 77° |
| 2026-04-12 07:41 | 36.70152 | -97.37184 | 41019 ft | 585 kts | 77° |
| 2026-04-12 07:42 | 36.72243 | -97.27378 | 41019 ft | 585 kts | 77° |
| 2026-04-12 07:43 | 36.76133 | -97.07649 | 41034 ft | 585 kts | 79° |
| 2026-04-12 07:43 | 36.77854 | -96.97793 | 41032 ft | 586 kts | 79° |
| 2026-04-12 07:44 | 36.79596 | -96.87871 | 41034 ft | 585 kts | 79° |
| 2026-04-12 07:44 | 36.81307 | -96.77959 | 41035 ft | 585 kts | 79° |
| 2026-04-12 07:45 | 36.83031 | -96.68031 | 41037 ft | 584 kts | 79° |
| 2026-04-12 07:45 | 36.84729 | -96.58107 | 41041 ft | 584 kts | 79° |
| 2026-04-12 07:46 | 36.86427 | -96.48225 | 41044 ft | 585 kts | 79° |
| 2026-04-12 07:46 | 36.88107 | -96.38293 | 41056 ft | 584 kts | 79° |
| 2026-04-12 07:47 | 36.89792 | -96.28358 | 41065 ft | 584 kts | 79° |
| 2026-04-12 07:47 | 36.91461 | -96.18422 | 41063 ft | 584 kts | 79° |
| 2026-04-12 07:48 | 36.93120 | -96.08518 | 41065 ft | 584 kts | 79° |
| 2026-04-12 07:48 | 36.94773 | -95.98580 | 41073 ft | 584 kts | 79° |
| 2026-04-12 07:49 | 36.96417 | -95.88645 | 41058 ft | 581 kts | 79° |
| 2026-04-12 07:49 | 36.98051 | -95.78719 | 41060 ft | 582 kts | 79° |
| 2026-04-12 07:50 | 36.99663 | -95.68865 | 41051 ft | 582 kts | 79° |
| 2026-04-12 07:50 | 37.01283 | -95.58921 | 41049 ft | 582 kts | 79° |
| 2026-04-12 07:51 | 37.02890 | -95.48991 | 41050 ft | 582 kts | 79° |
| 2026-04-12 07:51 | 37.04491 | -95.39056 | 41051 ft | 582 kts | 79° |
| 2026-04-12 07:52 | 37.06067 | -95.29201 | 41063 ft | 581 kts | 79° |
| 2026-04-12 07:52 | 37.07652 | -95.19253 | 41061 ft | 581 kts | 79° |
| 2026-04-12 07:53 | 37.09226 | -95.09307 | 41062 ft | 581 kts | 79° |
| 2026-04-12 07:53 | 37.10786 | -94.99401 | 41061 ft | 580 kts | 79° |
| 2026-04-12 07:54 | 37.12327 | -94.89549 | 41071 ft | 580 kts | 79° |
| 2026-04-12 07:54 | 37.13872 | -94.79619 | 41077 ft | 579 kts | 79° |
| 2026-04-12 07:55 | 37.15407 | -94.69701 | 41092 ft | 579 kts | 79° |
| 2026-04-12 07:55 | 37.16934 | -94.59774 | 41086 ft | 579 kts | 79° |
| 2026-04-12 07:56 | 37.18451 | -94.49850 | 41098 ft | 579 kts | 79° |
| 2026-04-12 07:56 | 37.19960 | -94.39928 | 41094 ft | 579 kts | 79° |
| 2026-04-12 07:57 | 37.21447 | -94.30089 | 41100 ft | 578 kts | 79° |
| 2026-04-12 07:57 | 37.22939 | -94.20158 | 41089 ft | 579 kts | 79° |
| 2026-04-12 07:58 | 37.24424 | -94.10211 | 41086 ft | 578 kts | 79° |
| 2026-04-12 07:58 | 37.25901 | -94.00266 | 41084 ft | 578 kts | 79° |
| 2026-04-12 07:59 | 37.27363 | -93.90354 | 41103 ft | 578 kts | 78° |
| 2026-04-12 07:59 | 37.28814 | -93.80466 | 41106 ft | 578 kts | 79° |
| 2026-04-12 08:00 | 37.30263 | -93.70527 | 41107 ft | 578 kts | 78° |
| 2026-04-12 08:00 | 37.31703 | -93.60587 | 41110 ft | 578 kts | 79° |
| 2026-04-12 08:01 | 37.33136 | -93.50635 | 41110 ft | 578 kts | 79° |
| 2026-04-12 08:01 | 37.34559 | -93.40690 | 41107 ft | 579 kts | 79° |
| 2026-04-12 08:02 | 37.35929 | -93.30720 | 41107 ft | 578 kts | 81° |
| 2026-04-12 08:02 | 37.37202 | -93.20726 | 41102 ft | 579 kts | 79° |
| 2026-04-12 08:03 | 37.38460 | -93.10725 | 41113 ft | 579 kts | 80° |
| 2026-04-12 08:03 | 37.39702 | -93.00718 | 41124 ft | 579 kts | 80° |
| 2026-04-12 08:04 | 37.40949 | -92.90707 | 41128 ft | 579 kts | 80° |
| 2026-04-12 08:04 | 37.42174 | -92.80687 | 41132 ft | 579 kts | 80° |
| 2026-04-12 08:05 | 37.43405 | -92.70656 | 41133 ft | 580 kts | 80° |
| 2026-04-12 08:05 | 37.44610 | -92.60667 | 41146 ft | 580 kts | 80° |
| 2026-04-12 08:06 | 37.45824 | -92.50617 | 41154 ft | 580 kts | 80° |
| 2026-04-12 08:06 | 37.47023 | -92.40550 | 41153 ft | 581 kts | 80° |
| 2026-04-12 08:07 | 37.48219 | -92.30475 | 41157 ft | 581 kts | 80° |
| 2026-04-12 08:07 | 37.49404 | -92.20395 | 41140 ft | 582 kts | 80° |
| 2026-04-12 08:08 | 37.50582 | -92.10308 | 41139 ft | 582 kts | 80° |
| 2026-04-12 08:08 | 37.51745 | -92.00275 | 41141 ft | 582 kts | 80° |
| 2026-04-12 08:09 | 37.52905 | -91.90182 | 41142 ft | 582 kts | 80° |
| 2026-04-12 08:09 | 37.54058 | -91.80087 | 41143 ft | 582 kts | 80° |
| 2026-04-12 08:10 | 37.55009 | -91.71683 | 41144 ft | 582 kts | 80° |
| 2026-04-12 08:10 | 37.56146 | -91.61586 | 41146 ft | 582 kts | 80° |
| 2026-04-12 08:11 | 37.57272 | -91.51495 | 41155 ft | 581 kts | 80° |
| 2026-04-12 08:11 | 37.58388 | -91.41407 | 41155 ft | 581 kts | 80° |
| 2026-04-12 08:12 | 37.59497 | -91.31315 | 41154 ft | 580 kts | 80° |
| 2026-04-12 08:12 | 37.60594 | -91.21244 | 41166 ft | 579 kts | 80° |
| 2026-04-12 08:13 | 37.61682 | -91.11174 | 41181 ft | 579 kts | 80° |
| 2026-04-12 08:13 | 37.62757 | -91.01146 | 41188 ft | 577 kts | 80° |
| 2026-04-12 08:14 | 37.63822 | -90.91131 | 41195 ft | 579 kts | 80° |
| 2026-04-12 08:14 | 37.64882 | -90.81065 | 41189 ft | 578 kts | 79° |
| 2026-04-12 08:15 | 37.65936 | -90.71003 | 41187 ft | 578 kts | 79° |
| 2026-04-12 08:15 | 37.66979 | -90.60931 | 41189 ft | 578 kts | 79° |
| 2026-04-12 08:16 | 37.68014 | -90.50870 | 41187 ft | 577 kts | 79° |
| 2026-04-12 08:16 | 37.69039 | -90.40810 | 41192 ft | 579 kts | 79° |
| 2026-04-12 08:17 | 37.70055 | -90.30757 | 41189 ft | 578 kts | 79° |
| 2026-04-12 08:17 | 37.71065 | -90.20667 | 41192 ft | 579 kts | 79° |
| 2026-04-12 08:18 | 37.72062 | -90.10628 | 41189 ft | 579 kts | 79° |
| 2026-04-12 08:18 | 37.73056 | -90.00532 | 41187 ft | 578 kts | 79° |
| 2026-04-12 08:19 | 37.74040 | -89.90448 | 41190 ft | 578 kts | 79° |
| 2026-04-12 08:19 | 37.75013 | -89.80367 | 41203 ft | 578 kts | 79° |
| 2026-04-12 08:20 | 37.75979 | -89.70286 | 41205 ft | 578 kts | 79° |
| 2026-04-12 08:20 | 37.76936 | -89.60198 | 41202 ft | 577 kts | 79° |
| 2026-04-12 08:21 | 37.77879 | -89.50178 | 41201 ft | 576 kts | 79° |
| 2026-04-12 08:21 | 37.78817 | -89.40103 | 41199 ft | 575 kts | 79° |
| 2026-04-12 08:22 | 37.79738 | -89.30130 | 41197 ft | 574 kts | 80° |
| 2026-04-12 08:22 | 37.80654 | -89.20103 | 41196 ft | 573 kts | 79° |
| 2026-04-12 08:23 | 37.81560 | -89.10101 | 41199 ft | 572 kts | 79° |
| 2026-04-12 08:23 | 37.82456 | -89.00105 | 41215 ft | 571 kts | 79° |
| 2026-04-12 08:24 | 37.83342 | -88.90133 | 41215 ft | 570 kts | 80° |
| 2026-04-12 08:24 | 37.84217 | -88.80185 | 41217 ft | 569 kts | 79° |
| 2026-04-12 08:25 | 37.85079 | -88.70281 | 41217 ft | 568 kts | 79° |
| 2026-04-12 08:25 | 37.85935 | -88.60355 | 41220 ft | 567 kts | 79° |
| 2026-04-12 08:26 | 37.86785 | -88.50407 | 41220 ft | 567 kts | 79° |
| 2026-04-12 08:26 | 37.87623 | -88.40479 | 41214 ft | 567 kts | 79° |
| 2026-04-12 08:27 | 37.88448 | -88.30627 | 41223 ft | 566 kts | 80° |
| 2026-04-12 08:27 | 37.89268 | -88.20717 | 41222 ft | 566 kts | 80° |
| 2026-04-12 08:28 | 37.90082 | -88.10789 | 41219 ft | 566 kts | 80° |
| 2026-04-12 08:28 | 37.90886 | -88.00873 | 41218 ft | 566 kts | 80° |
| 2026-04-12 08:29 | 37.91683 | -87.90939 | 41230 ft | 566 kts | 80° |
| 2026-04-12 08:29 | 37.92466 | -87.81075 | 41234 ft | 566 kts | 80° |
| 2026-04-12 08:30 | 37.93267 | -87.71151 | 41232 ft | 566 kts | 79° |
| 2026-04-12 08:30 | 37.94201 | -87.61264 | 41234 ft | 565 kts | 79° |
| 2026-04-12 08:31 | 37.95032 | -87.51374 | 41233 ft | 565 kts | 79° |
| 2026-04-12 08:31 | 37.95915 | -87.41486 | 41237 ft | 564 kts | 79° |
| 2026-04-12 08:32 | 37.96754 | -87.31594 | 41242 ft | 563 kts | 79° |
| 2026-04-12 08:32 | 37.97592 | -87.21807 | 40945 ft | 551 kts | 79° |
| 2026-04-12 08:33 | 37.97994 | -87.17034 | 40180 ft | 536 kts | 79° |
| 2026-04-12 08:33 | 37.98379 | -87.12396 | 39477 ft | 521 kts | 78° |
| 2026-04-12 08:33 | 37.98757 | -87.07886 | 38795 ft | 507 kts | 78° |
| 2026-04-12 08:33 | 37.99127 | -87.03500 | 38132 ft | 494 kts | 78° |
| 2026-04-12 08:34 | 37.99479 | -86.99278 | 37494 ft | 483 kts | 78° |
| 2026-04-12 08:34 | 37.99828 | -86.95065 | 36861 ft | 477 kts | 78° |
| 2026-04-12 08:34 | 38.00175 | -86.90874 | 36228 ft | 478 kts | 78° |
| 2026-04-12 08:34 | 38.00532 | -86.86616 | 35590 ft | 493 kts | 79° |
| 2026-04-12 08:35 | 38.00892 | -86.82228 | 34925 ft | 503 kts | 79° |
| 2026-04-12 08:35 | 38.01239 | -86.77804 | 34253 ft | 504 kts | 80° |
| 2026-04-12 08:35 | 38.01589 | -86.73434 | 33591 ft | 504 kts | 80° |
| 2026-04-12 08:35 | 38.01957 | -86.68948 | 32910 ft | 505 kts | 80° |
| 2026-04-12 08:36 | 38.02316 | -86.64511 | 32234 ft | 506 kts | 81° |
| 2026-04-12 08:36 | 38.02662 | -86.60124 | 31567 ft | 507 kts | 81° |
| 2026-04-12 08:36 | 38.03011 | -86.55679 | 30895 ft | 507 kts | 81° |
| 2026-04-12 08:36 | 38.03365 | -86.51224 | 30217 ft | 503 kts | 82° |
| 2026-04-12 08:37 | 38.03707 | -86.46860 | 29544 ft | 497 kts | 82° |
| 2026-04-12 08:37 | 38.04035 | -86.42648 | 28914 ft | 492 kts | 82° |
| 2026-04-12 08:37 | 38.04371 | -86.38335 | 28278 ft | 487 kts | 82° |
| 2026-04-12 08:37 | 38.04701 | -86.34081 | 27629 ft | 482 kts | 82° |
| 2026-04-12 08:38 | 38.05026 | -86.29865 | 26989 ft | 477 kts | 83° |
| 2026-04-12 08:38 | 38.05345 | -86.25704 | 26360 ft | 473 kts | 83° |
| 2026-04-12 08:38 | 38.05658 | -86.21606 | 25739 ft | 469 kts | 83° |
| 2026-04-12 08:38 | 38.05969 | -86.17519 | 25122 ft | 464 kts | 83° |
| 2026-04-12 08:39 | 38.06277 | -86.13444 | 24503 ft | 461 kts | 83° |
| 2026-04-12 08:39 | 38.06579 | -86.09425 | 23897 ft | 456 kts | 83° |
| 2026-04-12 08:39 | 38.06878 | -86.05437 | 23301 ft | 451 kts | 83° |
| 2026-04-12 08:39 | 38.07173 | -86.01487 | 22706 ft | 446 kts | 83° |
| 2026-04-12 08:40 | 38.07463 | -85.97583 | 22115 ft | 442 kts | 83° |
| 2026-04-12 08:40 | 38.07750 | -85.93721 | 21530 ft | 437 kts | 83° |
| 2026-04-12 08:40 | 38.08031 | -85.89900 | 20954 ft | 432 kts | 84° |
| 2026-04-12 08:40 | 38.08306 | -85.86123 | 20381 ft | 428 kts | 84° |
| 2026-04-12 08:41 | 38.08578 | -85.82374 | 19816 ft | 423 kts | 84° |
| 2026-04-12 08:41 | 38.08848 | -85.78671 | 19257 ft | 419 kts | 84° |
| 2026-04-12 08:41 | 38.09115 | -85.75012 | 18697 ft | 415 kts | 84° |
| 2026-04-12 08:41 | 38.09376 | -85.71379 | 18154 ft | 411 kts | 84° |
| 2026-04-12 08:42 | 38.09633 | -85.67782 | 17390 ft | 410 kts | 84° |
| 2026-04-12 08:42 | 38.09884 | -85.64260 | 16794 ft | 401 kts | 84° |
| 2026-04-12 08:42 | 38.10134 | -85.60758 | 16276 ft | 398 kts | 84° |
| 2026-04-12 08:42 | 38.10239 | -85.57264 | 15697 ft | 395 kts | 95° |
| 2026-04-12 08:43 | 38.09722 | -85.53865 | 15238 ft | 391 kts | 103° |
| 2026-04-12 08:43 | 38.09111 | -85.50505 | 14729 ft | 388 kts | 104° |
| 2026-04-12 08:43 | 38.08539 | -85.47189 | 14248 ft | 380 kts | 103° |
| 2026-04-12 08:43 | 38.08002 | -85.43875 | 13675 ft | 378 kts | 102° |
| 2026-04-12 08:44 | 38.07477 | -85.40591 | 13219 ft | 379 kts | 103° |
| 2026-04-12 08:44 | 38.06885 | -85.37351 | 12715 ft | 374 kts | 104° |
| 2026-04-12 08:44 | 38.06310 | -85.34146 | 12226 ft | 369 kts | 103° |
| 2026-04-12 08:44 | 38.05782 | -85.30955 | 11739 ft | 368 kts | 103° |
| 2026-04-12 08:45 | 38.05253 | -85.27786 | 11254 ft | 363 kts | 104° |
| 2026-04-12 08:45 | 38.04731 | -85.24800 | 10817 ft | 340 kts | 104° |
| 2026-04-12 08:45 | 38.04235 | -85.21955 | 10407 ft | 322 kts | 104° |
| 2026-04-12 08:45 | 38.03774 | -85.19251 | 10019 ft | 307 kts | 104° |
| 2026-04-12 08:46 | 38.03325 | -85.16640 | 9633 ft | 299 kts | 104° |
| 2026-04-12 08:46 | 38.02877 | -85.14061 | 9241 ft | 298 kts | 105° |
| 2026-04-12 08:46 | 38.01989 | -85.08941 | 8472 ft | 296 kts | 104° |
| 2026-04-12 08:47 | 38.01550 | -85.06399 | 8085 ft | 294 kts | 104° |
| 2026-04-12 08:47 | 38.01111 | -85.03863 | 7683 ft | 291 kts | 104° |
| 2026-04-12 08:47 | 38.00680 | -85.01384 | 7312 ft | 290 kts | 105° |
| 2026-04-12 08:47 | 38.00241 | -84.98895 | 6933 ft | 287 kts | 104° |
| 2026-04-12 08:48 | 37.99813 | -84.96428 | 6556 ft | 285 kts | 105° |
| 2026-04-12 08:48 | 37.99383 | -84.93988 | 6176 ft | 282 kts | 104° |
| 2026-04-12 08:48 | 37.98964 | -84.91570 | 5805 ft | 277 kts | 104° |
| 2026-04-12 08:48 | 37.98556 | -84.89231 | 5451 ft | 265 kts | 105° |
| 2026-04-12 08:49 | 37.98120 | -84.86992 | 5097 ft | 257 kts | 110° |
| 2026-04-12 08:49 | 37.97158 | -84.85136 | 4728 ft | 250 kts | 133° |
| 2026-04-12 08:49 | 37.95991 | -84.83498 | 4462 ft | 251 kts | 134° |
| 2026-04-12 08:49 | 37.94828 | -84.81837 | 4133 ft | 250 kts | 133° |
| 2026-04-12 08:50 | 37.93689 | -84.80195 | 3778 ft | 246 kts | 133° |
| 2026-04-12 08:50 | 37.92617 | -84.78647 | 3468 ft | 226 kts | 132° |
| 2026-04-12 08:50 | 37.91796 | -84.77037 | 3162 ft | 214 kts | 112° |
| 2026-04-12 08:50 | 37.91660 | -84.75234 | 2928 ft | 198 kts | 84° |
| 2026-04-12 08:51 | 37.92089 | -84.73714 | 2979 ft | 173 kts | 62° |
| 2026-04-12 08:51 | 37.92884 | -84.72603 | 2974 ft | 170 kts | 44° |
| 2026-04-12 08:51 | 37.93735 | -84.71657 | 2954 ft | 147 kts | 46° |
| 2026-04-12 08:51 | 37.94431 | -84.70852 | 2842 ft | 130 kts | 46° |
| 2026-04-12 08:52 | 37.95086 | -84.70121 | 2757 ft | 126 kts | 45° |
| 2026-04-12 08:52 | 37.95755 | -84.69366 | 2665 ft | 132 kts | 45° |
| 2026-04-12 08:52 | 37.96441 | -84.68602 | 2590 ft | 132 kts | 44° |
| 2026-04-12 08:52 | 37.97136 | -84.67822 | 2449 ft | 136 kts | 45° |
| 2026-04-12 08:53 | 37.97841 | -84.67033 | 2266 ft | 134 kts | 44° |
| 2026-04-12 08:53 | 37.98532 | -84.66271 | 2112 ft | 130 kts | 44° |
| 2026-04-12 08:53 | 37.99209 | -84.65515 | 1945 ft | 128 kts | 43° |
| 2026-04-12 08:53 | 37.99877 | -84.64774 | 1790 ft | 127 kts | 44° |
| 2026-04-12 08:54 | 38.00535 | -84.64033 | 1619 ft | 127 kts | 42° |
| 2026-04-12 08:54 | 38.01197 | -84.63295 | 1462 ft | 125 kts | 43° |
| 2026-04-12 08:54 | 38.01835 | -84.62568 | 1300 ft | 125 kts | 42° |
| 2026-04-12 08:54 | 38.02478 | -84.61841 | 1133 ft | 122 kts | 42° |
| 2026-04-12 08:55 | 38.03094 | -84.61147 | 1058 ft | 114 kts | 42° |
| 2026-04-12 08:55 | 38.03599 | -84.60580 | 1054 ft | 70 kts | 41° |
| 2026-04-12 08:55 | 38.03845 | -84.60305 | 1053 ft | 34 kts | 41° |
| 2026-04-12 08:55 | 38.04021 | -84.60108 | 1051 ft | 30 kts | 41° |
| 2026-04-12 08:56 | 38.04079 | -84.60027 | 1052 ft | 9 kts | 74° |
| 2026-04-12 08:56 | 38.04038 | -84.59939 | 1052 ft | 14 kts | 144° |
| 2026-04-12 08:56 | 38.03972 | -84.59975 | 1052 ft | 13 kts | 221° |
| 2026-04-12 08:56 | 38.03905 | -84.59991 | 1052 ft | 11 kts | 152° |
| 2026-04-12 08:57 | 38.03840 | -84.60047 | 1052 ft | 15 kts | 224° |
| 2026-04-12 08:57 | 38.03739 | -84.60118 | 1052 ft | 17 kts | 184° |
| 2026-04-12 08:57 | 38.03627 | -84.60092 | 1052 ft | 16 kts | 158° |
| 2026-04-12 08:57 | 38.03535 | -84.60017 | 1052 ft | 16 kts | 138° |
| 2026-04-12 08:58 | 38.03457 | -84.60054 | 1048 ft | 14 kts | 246° |
| 2026-04-12 08:58 | 38.03425 | -84.60123 | 1048 ft | 13 kts | 238° |
| 2026-04-12 08:58 | 38.03362 | -84.60183 | 1048 ft | 9 kts | 173° |
| 2026-04-12 08:58 | 38.03328 | -84.60132 | 1048 ft | 7 kts | 117° |
| 2026-04-12 08:59 | 38.03311 | -84.60092 | 1048 ft | 4 kts | 118° |
| 2026-04-12 08:59 | 38.03304 | -84.60075 | 1048 ft | 0 kts | 118° |